createdAt,value
2022-11-29T00:01:02.009Z,22.67
2022-11-29T00:03:29.658Z,23.60
2022-11-29T00:05:56.776Z,24.48
2022-11-29T00:08:23.930Z,23.90
2022-11-29T00:10:50.917Z,24.17
2022-11-29T00:13:17.847Z,25.05
2022-11-29T00:15:44.647Z,22.37
2022-11-29T00:18:11.418Z,24.90
2022-11-29T00:20:39.999Z,25.42
2022-11-29T00:23:06.838Z,26.00
2022-11-29T00:25:33.598Z,21.62
2022-11-29T00:28:00.445Z,21.98
2022-11-29T00:30:27.964Z,18.80
2022-11-29T00:32:54.889Z,17.73
2022-11-29T00:35:21.668Z,20.17
2022-11-29T00:37:48.469Z,18.92
2022-11-29T00:40:15.449Z,22.58
2022-11-29T00:42:42.167Z,19.00
2022-11-29T00:45:09.567Z,15.77
2022-11-29T00:47:36.462Z,21.20
2022-11-29T00:50:03.951Z,16.10
2022-11-29T00:52:30.719Z,20.02
2022-11-29T00:54:57.467Z,19.23
2022-11-29T00:57:24.268Z,19.73
2022-11-29T00:59:51.133Z,17.57
2022-11-29T01:02:17.967Z,19.75
2022-11-29T01:04:45.141Z,17.50
2022-11-29T01:07:12.010Z,14.65
2022-11-29T01:09:38.914Z,16.05
2022-11-29T01:12:05.828Z,17.77
2022-11-29T01:14:39.034Z,16.15
2022-11-29T01:17:05.898Z,18.77
2022-11-29T01:19:32.717Z,20.10
2022-11-29T01:21:59.491Z,20.02
2022-11-29T01:24:26.397Z,17.90
2022-11-29T01:26:53.192Z,18.60
2022-11-29T01:29:19.911Z,19.20
2022-11-29T01:31:46.943Z,23.85
2022-11-29T01:34:13.913Z,20.62
2022-11-29T01:36:40.744Z,25.43
2022-11-29T01:39:07.531Z,28.58
2022-11-29T01:41:37.287Z,21.52
2022-11-29T01:44:04.063Z,21.08
2022-11-29T01:46:34.408Z,26.42
2022-11-29T01:49:10.414Z,21.50
2022-11-29T01:51:40.422Z,20.10
2022-11-29T01:54:08.892Z,19.05
2022-11-29T01:56:37.474Z,23.80
2022-11-29T01:59:09.665Z,23.52
2022-11-29T02:01:37.109Z,19.30
2022-11-29T02:04:04.901Z,23.20
2022-11-29T02:06:32.632Z,22.02
2022-11-29T02:08:59.468Z,20.70
2022-11-29T02:12:07.962Z,23.25
2022-11-29T02:14:43.001Z,27.20
2022-11-29T02:17:15.816Z,21.80
2022-11-29T02:20:20.994Z,21.95
2022-11-29T02:23:01.907Z,19.00
2022-11-29T02:25:50.386Z,20.35
2022-11-29T02:28:51.370Z,21.23
2022-11-29T02:31:33.375Z,18.42
2022-11-29T02:34:21.931Z,19.98
2022-11-29T02:37:11.669Z,16.87
2022-11-29T02:39:52.099Z,21.73
2022-11-29T02:42:55.581Z,17.37
2022-11-29T02:45:36.344Z,17.73
2022-11-29T02:48:22.094Z,15.95
2022-11-29T02:51:11.027Z,26.62
2022-11-29T02:54:02.555Z,18.50
2022-11-29T02:56:51.052Z,19.20
2022-11-29T02:59:39.251Z,19.02
2022-11-29T03:02:35.940Z,17.10
2022-11-29T03:05:35.257Z,19.02
2022-11-29T03:08:17.336Z,24.60
2022-11-29T03:11:25.944Z,18.63
2022-11-29T03:14:14.623Z,21.62
2022-11-29T03:17:01.011Z,17.30
2022-11-29T03:19:48.593Z,14.98
2022-11-29T03:22:35.000Z,19.65
2022-11-29T03:25:13.113Z,17.83
2022-11-29T03:27:59.897Z,20.40
2022-11-29T03:30:28.590Z,16.80
2022-11-29T03:33:07.175Z,16.55
2022-11-29T03:35:41.803Z,17.62
2022-11-29T03:38:26.055Z,16.57
2022-11-29T03:41:24.328Z,19.20
2022-11-29T03:44:04.074Z,17.30
2022-11-29T03:46:38.126Z,18.15
2022-11-29T03:49:18.428Z,17.45
2022-11-29T03:52:10.339Z,18.93
2022-11-29T03:55:09.340Z,18.95
2022-11-29T03:58:02.307Z,17.30
2022-11-29T04:00:40.880Z,17.27
2022-11-29T04:03:36.791Z,16.35
2022-11-29T04:06:34.630Z,16.60
2022-11-29T04:09:04.499Z,17.67
2022-11-29T04:11:37.268Z,18.33
2022-11-29T04:14:30.722Z,16.20
2022-11-29T04:17:21.270Z,22.45
2022-11-29T04:20:08.361Z,16.83
2022-11-29T04:23:00.242Z,19.10
2022-11-29T04:29:40.247Z,16.83
2022-11-29T04:32:43.936Z,16.33
2022-11-29T04:35:38.111Z,17.50
2022-11-29T04:38:32.816Z,20.45
2022-11-29T04:41:19.950Z,15.98
2022-11-29T04:44:18.141Z,17.73
2022-11-29T04:47:00.045Z,16.57
2022-11-29T04:50:04.664Z,16.98
2022-11-29T04:52:40.605Z,16.50
2022-11-29T04:55:31.031Z,15.90
2022-11-29T04:58:03.927Z,18.60
2022-11-29T05:00:40.136Z,16.53
2022-11-29T05:03:15.380Z,14.60
2022-11-29T05:05:53.837Z,19.27
2022-11-29T05:08:29.389Z,16.77
2022-11-29T05:11:14.862Z,17.20
2022-11-29T05:14:00.190Z,17.63
2022-11-29T05:16:49.955Z,16.85
2022-11-29T05:19:47.573Z,15.98
2022-11-29T05:22:33.018Z,17.90
2022-11-29T05:25:21.313Z,12.32
2022-11-29T05:28:09.976Z,17.90
2022-11-29T05:31:17.347Z,12.82
2022-11-29T05:34:42.412Z,17.58
2022-11-29T05:37:35.887Z,15.68
2022-11-29T05:40:14.484Z,17.30
2022-11-29T05:42:47.013Z,18.00
2022-11-29T05:45:31.773Z,19.08
2022-11-29T05:48:09.325Z,13.45
2022-11-29T05:50:43.180Z,15.77
2022-11-29T05:53:29.210Z,17.65
2022-11-29T05:56:07.044Z,18.90
2022-11-29T05:58:42.235Z,16.98
2022-11-29T06:01:29.979Z,17.60
2022-11-29T06:04:07.976Z,15.57
2022-11-29T06:07:00.503Z,17.95
2022-11-29T06:09:39.873Z,20.17
2022-11-29T06:12:19.537Z,15.95
2022-11-29T06:15:06.401Z,24.40
2022-11-29T06:18:02.540Z,19.80
2022-11-29T06:21:06.485Z,16.75
2022-11-29T06:23:58.920Z,18.57
2022-11-29T06:26:34.417Z,21.37
2022-11-29T06:29:23.964Z,19.70
2022-11-29T06:32:19.393Z,19.75
2022-11-29T06:35:04.177Z,20.08
2022-11-29T06:37:40.366Z,20.20
2022-11-29T06:40:11.364Z,22.75
2022-11-29T06:42:38.478Z,20.83
2022-11-29T06:45:06.011Z,24.23
2022-11-29T06:47:44.126Z,19.52
2022-11-29T06:50:37.136Z,20.90
2022-11-29T06:53:22.478Z,18.35
2022-11-29T06:56:02.707Z,24.58
2022-11-29T06:58:50.509Z,22.37
2022-11-29T07:01:23.227Z,21.90
2022-11-29T07:04:45.673Z,18.37
2022-11-29T07:07:18.603Z,14.00
2022-11-29T07:09:46.881Z,20.73
2022-11-29T07:12:14.143Z,25.60
2022-11-29T07:14:41.191Z,19.52
2022-11-29T07:17:39.973Z,21.20
2022-11-29T07:20:43.937Z,22.98
2022-11-29T07:23:21.695Z,18.50
2022-11-29T07:26:05.000Z,21.67
2022-11-29T07:29:22.744Z,21.15
2022-11-29T07:32:08.084Z,20.13
2022-11-29T07:34:34.832Z,20.25
2022-11-29T07:37:24.016Z,21.00
2022-11-29T07:40:02.619Z,20.15
2022-11-29T07:42:48.512Z,17.12
2022-11-29T07:45:17.821Z,22.23
2022-11-29T07:47:44.582Z,19.87
2022-11-29T07:50:13.799Z,17.62
2022-11-29T07:52:40.630Z,16.65
2022-11-29T07:55:17.050Z,19.62
2022-11-29T07:57:45.478Z,21.73
2022-11-29T08:00:12.899Z,17.08
2022-11-29T08:02:40.415Z,15.65
2022-11-29T08:05:08.318Z,14.80
2022-11-29T08:07:36.835Z,15.68
2022-11-29T08:10:05.671Z,19.30
2022-11-29T08:12:32.532Z,16.95
2022-11-29T08:14:59.348Z,16.87
2022-11-29T08:17:26.292Z,21.12
2022-11-29T08:19:53.107Z,20.45
2022-11-29T08:22:20.054Z,17.40
2022-11-29T08:24:47.176Z,15.57
2022-11-29T08:27:14.249Z,16.60
2022-11-29T08:29:41.163Z,16.23
2022-11-29T08:32:09.071Z,16.95
2022-11-29T08:34:35.830Z,14.10
2022-11-29T08:37:02.598Z,15.75
2022-11-29T08:39:29.489Z,18.12
2022-11-29T08:41:56.208Z,14.45
2022-11-29T08:44:22.995Z,14.93
2022-11-29T08:47:08.350Z,13.73
2022-11-29T08:49:35.256Z,15.73
2022-11-29T08:52:20.746Z,15.82
2022-11-29T08:54:47.782Z,15.07
2022-11-29T08:57:39.070Z,12.77
2022-11-29T09:00:02.466Z,15.80
2022-11-29T09:02:30.185Z,15.23
2022-11-29T09:04:56.987Z,14.13
2022-11-29T09:07:23.970Z,13.20
2022-11-29T09:09:50.685Z,15.75
2022-11-29T09:12:17.436Z,13.63
2022-11-29T09:14:44.398Z,13.25
2022-11-29T09:17:11.248Z,14.48
2022-11-29T09:19:38.114Z,17.10
2022-11-29T09:22:05.182Z,16.05
2022-11-29T09:24:33.587Z,17.90
2022-11-29T09:27:00.394Z,15.13
2022-11-29T09:29:27.174Z,17.35
2022-11-29T09:31:54.131Z,17.98
2022-11-29T09:34:20.909Z,16.05
2022-11-29T09:36:48.244Z,14.93
2022-11-29T09:39:14.987Z,15.80
2022-11-29T09:42:19.223Z,14.25
2022-11-29T09:45:09.361Z,14.75
2022-11-29T09:48:50.102Z,13.98
2022-11-29T09:51:38.634Z,13.63
2022-11-29T09:54:30.891Z,17.50
2022-11-29T09:56:58.080Z,14.52
2022-11-29T09:59:32.495Z,13.23
2022-11-29T10:02:32.703Z,15.40
2022-11-29T10:05:09.084Z,13.73
2022-11-29T10:07:46.529Z,13.38
2022-11-29T10:10:26.344Z,14.73
2022-11-29T10:13:03.559Z,14.95
2022-11-29T10:15:34.590Z,14.05
2022-11-29T10:18:07.362Z,12.17
2022-11-29T10:20:43.529Z,12.82
2022-11-29T10:23:19.694Z,14.25
2022-11-29T10:25:49.922Z,15.30
2022-11-29T10:28:23.545Z,12.35
2022-11-29T10:30:53.987Z,13.07
2022-11-29T10:33:29.833Z,13.23
2022-11-29T10:36:00.221Z,11.48
2022-11-29T10:38:31.465Z,14.32
2022-11-29T10:41:10.195Z,13.18
2022-11-29T10:43:38.244Z,12.77
2022-11-29T10:46:10.508Z,15.27
2022-11-29T10:48:38.154Z,14.55
2022-11-29T10:51:17.323Z,15.18
2022-11-29T10:53:46.686Z,18.25
2022-11-29T10:56:27.580Z,13.40
2022-11-29T10:59:05.316Z,13.80
2022-11-29T11:01:37.222Z,17.15
2022-11-29T11:04:08.577Z,14.75
2022-11-29T11:07:06.144Z,17.77
2022-11-29T11:09:48.650Z,18.67
2022-11-29T11:12:15.332Z,14.90
2022-11-29T11:14:43.876Z,16.30
2022-11-29T11:17:32.999Z,17.92
2022-11-29T11:20:04.645Z,16.48
2022-11-29T11:22:33.436Z,12.33
2022-11-29T11:25:05.689Z,12.88
2022-11-29T11:27:40.095Z,13.50
2022-11-29T11:30:24.715Z,15.48
2022-11-29T11:33:25.937Z,16.10
2022-11-29T11:36:06.019Z,13.30
2022-11-29T11:38:35.790Z,13.95
2022-11-29T11:41:11.946Z,13.88
2022-11-29T11:43:39.941Z,13.68
2022-11-29T11:46:08.296Z,16.02
2022-11-29T11:48:36.023Z,16.97
2022-11-29T11:51:03.332Z,16.83
2022-11-29T11:53:36.683Z,17.73
2022-11-29T11:56:10.453Z,13.48
2022-11-29T11:58:45.344Z,13.07
2022-11-29T12:01:12.659Z,15.97
2022-11-29T12:04:02.625Z,12.07
2022-11-29T12:06:39.371Z,13.25
2022-11-29T12:09:09.895Z,15.10
2022-11-29T12:12:15.330Z,13.82
2022-11-29T12:14:53.766Z,12.47
2022-11-29T12:17:26.730Z,12.23
2022-11-29T12:19:59.292Z,12.65
2022-11-29T12:22:34.372Z,13.80
2022-11-29T12:25:05.042Z,13.07
2022-11-29T12:27:32.085Z,13.30
2022-11-29T12:29:59.046Z,14.57
2022-11-29T12:32:57.878Z,12.10
2022-11-29T12:35:38.221Z,12.88
2022-11-29T12:38:27.649Z,12.13
2022-11-29T12:41:22.531Z,13.73
2022-11-29T12:44:05.585Z,15.20
2022-11-29T12:46:34.246Z,16.12
2022-11-29T12:49:26.629Z,16.35
2022-11-29T12:52:20.274Z,18.20
2022-11-29T12:55:23.284Z,17.47
2022-11-29T12:58:14.397Z,17.10
2022-11-29T13:00:54.792Z,21.40
2022-11-29T13:03:33.381Z,20.85
2022-11-29T13:06:08.692Z,26.52
2022-11-29T13:08:38.314Z,22.27
2022-11-29T13:11:23.587Z,19.87
2022-11-29T13:14:42.150Z,16.92
2022-11-29T13:17:11.997Z,15.43
2022-11-29T13:19:44.811Z,16.40
2022-11-29T13:22:20.518Z,19.57
2022-11-29T13:24:52.078Z,21.00
2022-11-29T13:27:27.495Z,17.67
2022-11-29T13:29:56.111Z,19.85
2022-11-29T13:32:55.181Z,16.55
2022-11-29T13:35:51.514Z,17.97
2022-11-29T13:38:51.682Z,17.48
2022-11-29T13:41:33.813Z,19.60
2022-11-29T13:44:36.829Z,24.67
2022-11-29T13:47:12.660Z,18.62
2022-11-29T13:49:51.861Z,19.90
2022-11-29T13:52:42.507Z,23.45
2022-11-29T13:55:12.141Z,22.58
2022-11-29T14:00:45.057Z,24.40
2022-11-29T14:03:24.020Z,25.80
2022-11-29T14:05:53.080Z,23.77
2022-11-29T14:09:01.914Z,21.15
2022-11-29T14:11:28.391Z,17.20
2022-11-29T14:14:29.153Z,20.33
2022-11-29T14:17:01.344Z,23.23
2022-11-29T14:19:36.154Z,20.70
2022-11-29T14:22:03.014Z,21.60
2022-11-29T14:24:32.832Z,25.33
2022-11-29T14:27:05.798Z,23.48
2022-11-29T14:29:50.989Z,28.37
2022-11-29T14:32:24.895Z,22.80
2022-11-29T14:35:12.938Z,24.37
2022-11-29T14:38:19.312Z,23.40
2022-11-29T14:40:53.059Z,28.38
2022-11-29T14:43:28.608Z,25.67
2022-11-29T14:46:13.997Z,24.12
2022-11-29T14:48:56.116Z,26.35
2022-11-29T14:51:25.571Z,23.10
2022-11-29T14:54:03.352Z,23.52
2022-11-29T14:56:34.782Z,25.03
2022-11-29T14:59:39.597Z,26.90
2022-11-29T15:02:28.607Z,20.25
2022-11-29T15:04:57.412Z,25.27
2022-11-29T15:07:29.233Z,26.23
2022-11-29T15:10:03.346Z,22.97
2022-11-29T15:12:37.315Z,24.73
2022-11-29T15:15:28.510Z,27.62
2022-11-29T15:18:11.406Z,25.55
2022-11-29T15:20:41.233Z,24.55
2022-11-29T15:23:19.167Z,26.63
2022-11-29T15:25:48.434Z,34.28
2022-11-29T15:28:24.691Z,33.95
2022-11-29T15:31:05.217Z,37.90
2022-11-29T15:33:34.412Z,45.88
2022-11-29T15:36:07.224Z,41.90
2022-11-29T15:38:49.359Z,42.25
2022-11-29T15:41:19.185Z,48.35
2022-11-29T15:43:51.183Z,36.50
2022-11-29T15:46:25.068Z,46.63
2022-11-29T15:48:51.915Z,43.10
2022-11-29T15:51:18.679Z,47.47
2022-11-29T15:53:50.014Z,43.33
2022-11-29T15:56:46.445Z,36.28
2022-11-29T15:59:34.434Z,41.08
2022-11-29T16:02:25.325Z,39.87
2022-11-29T16:04:57.294Z,45.60
2022-11-29T16:07:26.595Z,47.88
2022-11-29T16:09:59.418Z,44.47
2022-11-29T16:12:26.668Z,45.63
2022-11-29T16:14:56.590Z,51.63
2022-11-29T16:17:34.968Z,43.22
2022-11-29T16:20:15.665Z,45.38
2022-11-29T16:22:42.525Z,48.80
2022-11-29T16:25:17.928Z,44.97
2022-11-29T16:27:45.501Z,46.03
2022-11-29T16:30:23.563Z,38.08
2022-11-29T16:32:54.972Z,39.83
2022-11-29T16:35:26.718Z,44.60
2022-11-29T16:37:57.613Z,42.65
2022-11-29T16:40:30.861Z,46.80
2022-11-29T16:43:03.821Z,40.72
2022-11-29T16:45:39.549Z,44.20
2022-11-29T16:48:28.082Z,54.20
2022-11-29T16:51:10.836Z,52.85
2022-11-29T16:53:42.828Z,52.23
2022-11-29T16:56:15.047Z,57.70
2022-11-29T16:59:20.966Z,64.18
2022-11-29T17:01:32.522Z,77.50
2022-11-29T17:04:00.871Z,75.20
2022-11-29T17:06:30.063Z,70.97
2022-11-29T17:08:59.448Z,73.18
2022-11-29T17:11:27.118Z,65.68
2022-11-29T17:13:54.446Z,61.08
2022-11-29T17:16:23.248Z,60.42
2022-11-29T17:18:53.044Z,63.00
2022-11-29T17:21:25.702Z,65.47
2022-11-29T17:23:53.944Z,63.15
2022-11-29T17:26:22.570Z,79.32
2022-11-29T17:28:51.714Z,87.32
2022-11-29T17:31:22.520Z,97.57
2022-11-29T17:33:50.462Z,89.32
2022-11-29T17:36:20.481Z,100.78
2022-11-29T17:38:48.703Z,86.85
2022-11-29T17:41:18.259Z,85.85
2022-11-29T17:43:45.482Z,91.23
2022-11-29T17:46:18.632Z,92.18
2022-11-29T17:48:46.350Z,84.37
2022-11-29T17:51:43.691Z,83.32
2022-11-29T17:54:03.434Z,83.68
2022-11-29T17:56:31.188Z,77.97
2022-11-29T17:59:00.943Z,77.57
2022-11-29T18:01:30.894Z,81.93
2022-11-29T18:04:00.682Z,75.25
2022-11-29T18:06:34.625Z,76.25
2022-11-29T18:09:03.018Z,81.80
2022-11-29T18:11:47.432Z,76.43
2022-11-29T18:14:18.551Z,81.60
2022-11-29T18:16:46.406Z,82.25
2022-11-29T18:19:22.932Z,85.93
2022-11-29T18:21:50.562Z,81.13
2022-11-29T18:24:18.433Z,98.37
2022-11-29T18:26:46.218Z,91.43
2022-11-29T18:29:13.496Z,88.93
2022-11-29T18:31:43.007Z,84.10
2022-11-29T18:34:13.372Z,86.77
2022-11-29T18:36:46.445Z,78.72
2022-11-29T18:39:16.394Z,79.65
2022-11-29T18:41:46.745Z,75.35
2022-11-29T18:44:15.629Z,74.03
2022-11-29T18:46:44.507Z,81.00
2022-11-29T18:49:15.802Z,83.75
2022-11-29T18:51:45.351Z,86.45
2022-11-29T18:54:13.241Z,98.75
2022-11-29T18:56:40.533Z,92.00
2022-11-29T18:59:13.667Z,97.67
2022-11-29T19:01:43.057Z,103.57
2022-11-29T19:04:15.531Z,87.53
2022-11-29T19:06:43.252Z,98.75
2022-11-29T19:09:16.956Z,91.60
2022-11-29T19:11:44.258Z,96.17
2022-11-29T19:14:13.092Z,104.82
2022-11-29T19:16:46.202Z,105.68
2022-11-29T19:19:14.020Z,95.97
2022-11-29T19:21:41.876Z,96.10
2022-11-29T19:24:15.233Z,90.37
2022-11-29T19:26:45.675Z,84.35
2022-11-29T19:29:14.293Z,123.22
2022-11-29T19:31:42.917Z,174.87
2022-11-29T19:34:10.759Z,174.50
2022-11-29T19:36:45.454Z,162.93
2022-11-29T19:39:14.653Z,142.43
2022-11-29T19:41:45.167Z,120.85
2022-11-29T19:44:12.762Z,119.32
2022-11-29T19:46:42.526Z,125.43
2022-11-29T19:49:10.892Z,142.73
2022-11-29T19:51:38.480Z,125.55
2022-11-29T19:54:09.477Z,109.15
2022-11-29T19:56:36.863Z,97.60
2022-11-29T19:59:05.091Z,91.32
2022-11-29T20:01:40.281Z,83.90
2022-11-29T20:04:09.659Z,89.45
2022-11-29T20:06:36.727Z,95.47
2022-11-29T20:09:04.662Z,101.85
2022-11-29T20:11:31.985Z,92.57
2022-11-29T20:14:00.652Z,86.63
2022-11-29T20:16:29.285Z,79.80
2022-11-29T20:18:57.436Z,79.03
2022-11-29T20:21:33.873Z,83.37
2022-11-29T20:24:07.519Z,74.57
2022-11-29T20:26:37.368Z,71.97
2022-11-29T20:29:06.592Z,77.37
2022-11-29T20:31:37.020Z,72.68
2022-11-29T20:34:05.190Z,72.87
2022-11-29T20:37:10.333Z,71.20
2022-11-29T20:39:58.775Z,71.20
2022-11-29T20:42:29.041Z,70.87
2022-11-29T20:44:59.177Z,67.18
2022-11-29T20:47:32.882Z,77.78
2022-11-29T20:50:00.320Z,71.37
2022-11-29T20:52:51.423Z,73.30
2022-11-29T20:55:18.615Z,72.78
2022-11-29T20:57:45.755Z,70.93
2022-11-29T21:00:13.991Z,68.40
2022-11-29T21:02:40.875Z,60.80
2022-11-29T21:05:09.307Z,77.63
2022-11-29T21:07:36.849Z,84.65
2022-11-29T21:10:05.267Z,87.97
2022-11-29T21:12:32.760Z,93.78
2022-11-29T21:14:59.999Z,91.25
2022-11-29T21:17:33.176Z,90.10
2022-11-29T21:20:01.474Z,71.85
2022-11-29T21:23:10.827Z,66.65
2022-11-29T21:25:59.573Z,65.18
2022-11-29T21:28:34.922Z,62.88
2022-11-29T21:31:02.113Z,55.47
2022-11-29T21:33:30.253Z,51.03
2022-11-29T21:35:58.155Z,50.35
2022-11-29T21:38:26.870Z,50.60
2022-11-29T21:40:53.935Z,44.90
2022-11-29T21:43:22.778Z,39.50
2022-11-29T21:45:52.177Z,42.97
2022-11-29T21:48:42.381Z,47.95
2022-11-29T21:51:11.211Z,39.08
2022-11-29T21:53:39.591Z,38.35
2022-11-29T21:56:08.517Z,43.67
2022-11-29T21:58:36.952Z,40.80
2022-11-29T22:01:15.885Z,43.28
2022-11-29T22:03:43.821Z,35.00
2022-11-29T22:06:13.354Z,39.20
2022-11-29T22:08:41.615Z,40.07
2022-11-29T22:11:17.092Z,32.35
2022-11-29T22:14:02.869Z,33.65
2022-11-29T22:16:30.553Z,33.03
2022-11-29T22:18:57.380Z,34.55
2022-11-29T22:21:24.283Z,37.37
2022-11-29T22:23:52.612Z,34.53
2022-11-29T22:26:19.459Z,36.17
2022-11-29T22:28:46.314Z,34.00
2022-11-29T22:31:13.157Z,32.08
2022-11-29T22:33:40.468Z,31.37
2022-11-29T22:36:10.008Z,27.40
2022-11-29T22:38:37.903Z,26.83
2022-11-29T22:41:12.232Z,28.73
2022-11-29T22:43:40.201Z,30.85
2022-11-29T22:46:14.441Z,26.27
2022-11-29T22:48:43.800Z,28.58
2022-11-29T22:51:16.822Z,24.95
2022-11-29T22:53:50.040Z,23.00
2022-11-29T22:56:17.204Z,27.00
2022-11-29T22:58:44.893Z,23.27
2022-11-29T23:01:17.769Z,26.37
2022-11-29T23:03:48.469Z,25.05
2022-11-29T23:06:18.443Z,23.83
2022-11-29T23:08:47.168Z,24.70
2022-11-29T23:11:17.076Z,24.03
2022-11-29T23:13:44.128Z,23.30
2022-11-29T23:16:16.478Z,23.62
2022-11-29T23:18:45.616Z,24.30
2022-11-29T23:21:15.518Z,23.80
2022-11-29T23:23:43.139Z,22.27
2022-11-29T23:26:18.514Z,21.15
2022-11-29T23:28:45.476Z,21.58
2022-11-29T23:31:12.488Z,26.30
2022-11-29T23:33:39.440Z,25.67
2022-11-29T23:36:08.364Z,23.43
2022-11-29T23:38:36.191Z,23.02
2022-11-29T23:41:03.585Z,21.58
2022-11-29T23:43:35.165Z,23.95
2022-11-29T23:46:07.347Z,22.60
2022-11-29T23:48:34.537Z,19.67
2022-11-29T23:51:01.513Z,22.15
2022-11-29T23:53:32.383Z,23.15
2022-11-29T23:56:02.165Z,24.00
2022-11-29T23:58:30.462Z,25.05
